sensor_id;sensor_type;location;lat;lon;timestamp;P1;durP1;ratioP1;P2;durP2;ratioP2
21014;SDS011;19207;-23.482;-46.500;2023-08-17T00:02:12;83.85;;;35.17;;
21014;SDS011;19207;-23.482;-46.500;2023-08-17T00:04:58;81.60;;;35.88;;
21014;SDS011;19207;-23.482;-46.500;2023-08-17T00:07:46;99.43;;;37.38;;
21014;SDS011;19207;-23.482;-46.500;2023-08-17T00:10:33;82.25;;;37.33;;
21014;SDS011;19207;-23.482;-46.500;2023-08-17T00:13:20;84.57;;;36.33;;
21014;SDS011;19207;-23.482;-46.500;2023-08-17T00:16:07;72.30;;;30.65;;
21014;SDS011;19207;-23.482;-46.500;2023-08-17T00:18:54;73.97;;;30.67;;
21014;SDS011;19207;-23.482;-46.500;2023-08-17T00:21:41;79.65;;;27.45;;
21014;SDS011;19207;-23.482;-46.500;2023-08-17T00:24:28;69.35;;;28.27;;
21014;SDS011;19207;-23.482;-46.500;2023-08-17T00:27:15;71.30;;;27.83;;
21014;SDS011;19207;-23.482;-46.500;2023-08-17T00:30:02;55.95;;;25.08;;
21014;SDS011;19207;-23.482;-46.500;2023-08-17T00:32:49;52.42;;;20.92;;
21014;SDS011;19207;-23.482;-46.500;2023-08-17T00:35:35;49.40;;;23.83;;
21014;SDS011;19207;-23.482;-46.500;2023-08-17T00:38:22;49.22;;;20.08;;
21014;SDS011;19207;-23.482;-46.500;2023-08-17T00:41:10;44.80;;;19.15;;
21014;SDS011;19207;-23.482;-46.500;2023-08-17T00:43:57;48.58;;;19.10;;
21014;SDS011;19207;-23.482;-46.500;2023-08-17T00:46:44;43.20;;;18.92;;
21014;SDS011;19207;-23.482;-46.500;2023-08-17T00:49:32;45.53;;;18.23;;
21014;SDS011;19207;-23.482;-46.500;2023-08-17T00:52:19;40.05;;;18.23;;
21014;SDS011;19207;-23.482;-46.500;2023-08-17T00:55:06;35.28;;;15.77;;
21014;SDS011;19207;-23.482;-46.500;2023-08-17T00:57:53;42.65;;;16.90;;
21014;SDS011;19207;-23.482;-46.500;2023-08-17T01:00:52;54.38;;;20.92;;
21014;SDS011;19207;-23.482;-46.500;2023-08-17T01:03:39;54.45;;;20.77;;
21014;SDS011;19207;-23.482;-46.500;2023-08-17T01:06:27;47.67;;;19.00;;
21014;SDS011;19207;-23.482;-46.500;2023-08-17T01:09:14;48.70;;;20.33;;
21014;SDS011;19207;-23.482;-46.500;2023-08-17T01:20:37;59.60;;;22.42;;
21014;SDS011;19207;-23.482;-46.500;2023-08-17T01:23:25;70.15;;;27.62;;
21014;SDS011;19207;-23.482;-46.500;2023-08-17T01:26:12;73.75;;;29.20;;
21014;SDS011;19207;-23.482;-46.500;2023-08-17T01:29:01;68.87;;;28.08;;
21014;SDS011;19207;-23.482;-46.500;2023-08-17T01:35:02;42.60;;;19.90;;
21014;SDS011;19207;-23.482;-46.500;2023-08-17T01:37:51;46.30;;;18.70;;
21014;SDS011;19207;-23.482;-46.500;2023-08-17T01:40:39;43.25;;;17.27;;
21014;SDS011;19207;-23.482;-46.500;2023-08-17T01:43:29;39.67;;;16.12;;
21014;SDS011;19207;-23.482;-46.500;2023-08-17T01:46:16;38.38;;;17.25;;
21014;SDS011;19207;-23.482;-46.500;2023-08-17T01:49:04;42.65;;;15.60;;
21014;SDS011;19207;-23.482;-46.500;2023-08-17T01:51:51;49.80;;;15.95;;
21014;SDS011;19207;-23.482;-46.500;2023-08-17T01:54:38;35.90;;;17.40;;
21014;SDS011;19207;-23.482;-46.500;2023-08-17T01:57:25;39.30;;;16.67;;
21014;SDS011;19207;-23.482;-46.500;2023-08-17T02:00:12;30.42;;;15.68;;
21014;SDS011;19207;-23.482;-46.500;2023-08-17T02:02:59;35.85;;;16.77;;
21014;SDS011;19207;-23.482;-46.500;2023-08-17T02:05:46;33.15;;;17.52;;
21014;SDS011;19207;-23.482;-46.500;2023-08-17T02:08:33;42.45;;;19.65;;
21014;SDS011;19207;-23.482;-46.500;2023-08-17T02:11:20;41.15;;;19.85;;
21014;SDS011;19207;-23.482;-46.500;2023-08-17T02:14:08;45.42;;;19.12;;
21014;SDS011;19207;-23.482;-46.500;2023-08-17T02:16:55;53.05;;;20.55;;
21014;SDS011;19207;-23.482;-46.500;2023-08-17T02:19:42;42.62;;;21.35;;
21014;SDS011;19207;-23.482;-46.500;2023-08-17T02:22:30;53.83;;;20.58;;
21014;SDS011;19207;-23.482;-46.500;2023-08-17T02:25:16;48.25;;;22.08;;
21014;SDS011;19207;-23.482;-46.500;2023-08-17T02:28:04;43.25;;;21.50;;
21014;SDS011;19207;-23.482;-46.500;2023-08-17T02:30:54;43.30;;;21.15;;
21014;SDS011;19207;-23.482;-46.500;2023-08-17T02:33:42;44.60;;;19.90;;
21014;SDS011;19207;-23.482;-46.500;2023-08-17T02:36:29;44.58;;;19.52;;
21014;SDS011;19207;-23.482;-46.500;2023-08-17T02:39:16;39.00;;;18.87;;
21014;SDS011;19207;-23.482;-46.500;2023-08-17T02:42:03;44.10;;;19.42;;
21014;SDS011;19207;-23.482;-46.500;2023-08-17T02:44:50;56.70;;;19.65;;
21014;SDS011;19207;-23.482;-46.500;2023-08-17T02:47:37;47.03;;;20.90;;
21014;SDS011;19207;-23.482;-46.500;2023-08-17T02:50:25;52.10;;;21.10;;
21014;SDS011;19207;-23.482;-46.500;2023-08-17T02:53:12;57.15;;;22.20;;
21014;SDS011;19207;-23.482;-46.500;2023-08-17T02:55:59;59.80;;;21.23;;
21014;SDS011;19207;-23.482;-46.500;2023-08-17T02:58:46;67.05;;;23.33;;
21014;SDS011;19207;-23.482;-46.500;2023-08-17T03:01:33;66.03;;;24.63;;
21014;SDS011;19207;-23.482;-46.500;2023-08-17T03:04:20;60.75;;;22.40;;
21014;SDS011;19207;-23.482;-46.500;2023-08-17T03:07:07;57.25;;;23.27;;
21014;SDS011;19207;-23.482;-46.500;2023-08-17T03:09:54;46.80;;;22.25;;
21014;SDS011;19207;-23.482;-46.500;2023-08-17T03:12:41;61.40;;;22.52;;
21014;SDS011;19207;-23.482;-46.500;2023-08-17T03:15:29;65.37;;;24.75;;
21014;SDS011;19207;-23.482;-46.500;2023-08-17T03:18:15;50.05;;;22.42;;
21014;SDS011;19207;-23.482;-46.500;2023-08-17T03:21:02;59.58;;;24.20;;
21014;SDS011;19207;-23.482;-46.500;2023-08-17T03:23:49;58.22;;;23.70;;
21014;SDS011;19207;-23.482;-46.500;2023-08-17T03:26:36;70.22;;;26.45;;
21014;SDS011;19207;-23.482;-46.500;2023-08-17T03:29:23;63.10;;;25.98;;
21014;SDS011;19207;-23.482;-46.500;2023-08-17T03:32:11;69.78;;;26.02;;
21014;SDS011;19207;-23.482;-46.500;2023-08-17T03:34:58;67.87;;;25.80;;
21014;SDS011;19207;-23.482;-46.500;2023-08-17T03:37:45;78.07;;;28.27;;
21014;SDS011;19207;-23.482;-46.500;2023-08-17T03:40:31;72.72;;;25.05;;
21014;SDS011;19207;-23.482;-46.500;2023-08-17T03:43:18;62.53;;;25.02;;
21014;SDS011;19207;-23.482;-46.500;2023-08-17T03:46:05;61.03;;;23.67;;
21014;SDS011;19207;-23.482;-46.500;2023-08-17T03:48:52;59.83;;;24.05;;
21014;SDS011;19207;-23.482;-46.500;2023-08-17T03:51:40;55.95;;;23.15;;
21014;SDS011;19207;-23.482;-46.500;2023-08-17T03:54:27;59.80;;;24.30;;
21014;SDS011;19207;-23.482;-46.500;2023-08-17T03:57:14;57.33;;;23.23;;
21014;SDS011;19207;-23.482;-46.500;2023-08-17T04:00:02;49.58;;;24.55;;
21014;SDS011;19207;-23.482;-46.500;2023-08-17T04:02:58;67.57;;;24.50;;
21014;SDS011;19207;-23.482;-46.500;2023-08-17T04:05:45;55.97;;;24.73;;
21014;SDS011;19207;-23.482;-46.500;2023-08-17T04:08:32;68.85;;;26.08;;
21014;SDS011;19207;-23.482;-46.500;2023-08-17T04:11:20;63.47;;;26.42;;
21014;SDS011;19207;-23.482;-46.500;2023-08-17T04:14:07;63.38;;;26.77;;
21014;SDS011;19207;-23.482;-46.500;2023-08-17T04:16:54;69.95;;;28.60;;
21014;SDS011;19207;-23.482;-46.500;2023-08-17T04:19:42;64.75;;;30.95;;
21014;SDS011;19207;-23.482;-46.500;2023-08-17T04:22:29;75.05;;;32.75;;
21014;SDS011;19207;-23.482;-46.500;2023-08-17T04:25:16;84.30;;;35.08;;
21014;SDS011;19207;-23.482;-46.500;2023-08-17T04:28:03;83.62;;;34.50;;
21014;SDS011;19207;-23.482;-46.500;2023-08-17T04:30:50;73.97;;;31.10;;
21014;SDS011;19207;-23.482;-46.500;2023-08-17T04:33:39;74.43;;;35.22;;
21014;SDS011;19207;-23.482;-46.500;2023-08-17T04:36:26;58.00;;;29.20;;
21014;SDS011;19207;-23.482;-46.500;2023-08-17T04:39:13;59.45;;;26.73;;
21014;SDS011;19207;-23.482;-46.500;2023-08-17T04:42:00;41.83;;;18.42;;
21014;SDS011;19207;-23.482;-46.500;2023-08-17T04:44:48;32.10;;;16.08;;
21014;SDS011;19207;-23.482;-46.500;2023-08-17T04:47:35;33.33;;;16.08;;
21014;SDS011;19207;-23.482;-46.500;2023-08-17T04:50:22;36.75;;;17.10;;
21014;SDS011;19207;-23.482;-46.500;2023-08-17T04:53:10;36.83;;;16.58;;
21014;SDS011;19207;-23.482;-46.500;2023-08-17T04:55:58;31.30;;;14.77;;
21014;SDS011;19207;-23.482;-46.500;2023-08-17T04:58:45;34.90;;;15.63;;
21014;SDS011;19207;-23.482;-46.500;2023-08-17T05:01:32;35.63;;;15.57;;
21014;SDS011;19207;-23.482;-46.500;2023-08-17T05:04:19;32.15;;;15.00;;
21014;SDS011;19207;-23.482;-46.500;2023-08-17T05:07:06;29.63;;;13.95;;
21014;SDS011;19207;-23.482;-46.500;2023-08-17T05:09:53;29.90;;;14.60;;
21014;SDS011;19207;-23.482;-46.500;2023-08-17T05:12:40;31.45;;;15.27;;
21014;SDS011;19207;-23.482;-46.500;2023-08-17T05:15:27;32.65;;;15.05;;
21014;SDS011;19207;-23.482;-46.500;2023-08-17T05:18:15;30.90;;;13.90;;
21014;SDS011;19207;-23.482;-46.500;2023-08-17T05:21:02;27.52;;;13.32;;
21014;SDS011;19207;-23.482;-46.500;2023-08-17T05:23:49;31.17;;;12.73;;
21014;SDS011;19207;-23.482;-46.500;2023-08-17T05:26:36;33.67;;;13.02;;
21014;SDS011;19207;-23.482;-46.500;2023-08-17T05:29:23;27.48;;;11.85;;
21014;SDS011;19207;-23.482;-46.500;2023-08-17T05:32:10;20.62;;;10.85;;
21014;SDS011;19207;-23.482;-46.500;2023-08-17T05:34:57;29.87;;;11.63;;
21014;SDS011;19207;-23.482;-46.500;2023-08-17T05:37:44;39.25;;;15.93;;
21014;SDS011;19207;-23.482;-46.500;2023-08-17T05:40:31;32.55;;;13.88;;
21014;SDS011;19207;-23.482;-46.500;2023-08-17T05:43:19;24.98;;;11.73;;
21014;SDS011;19207;-23.482;-46.500;2023-08-17T05:46:05;22.27;;;11.02;;
21014;SDS011;19207;-23.482;-46.500;2023-08-17T05:48:53;21.48;;;10.80;;
21014;SDS011;19207;-23.482;-46.500;2023-08-17T05:55:34;21.87;;;10.02;;
21014;SDS011;19207;-23.482;-46.500;2023-08-17T05:58:21;19.87;;;10.57;;
21014;SDS011;19207;-23.482;-46.500;2023-08-17T06:01:09;29.05;;;10.82;;
21014;SDS011;19207;-23.482;-46.500;2023-08-17T06:03:56;26.52;;;11.35;;
21014;SDS011;19207;-23.482;-46.500;2023-08-17T06:06:43;37.17;;;20.37;;
21014;SDS011;19207;-23.482;-46.500;2023-08-17T06:09:29;44.63;;;22.20;;
21014;SDS011;19207;-23.482;-46.500;2023-08-17T06:12:16;55.22;;;25.73;;
21014;SDS011;19207;-23.482;-46.500;2023-08-17T06:15:04;62.17;;;25.90;;
21014;SDS011;19207;-23.482;-46.500;2023-08-17T06:17:51;50.60;;;21.23;;
21014;SDS011;19207;-23.482;-46.500;2023-08-17T06:20:38;44.33;;;15.77;;
21014;SDS011;19207;-23.482;-46.500;2023-08-17T06:23:25;39.72;;;16.15;;
21014;SDS011;19207;-23.482;-46.500;2023-08-17T06:26:12;27.87;;;13.30;;
21014;SDS011;19207;-23.482;-46.500;2023-08-17T06:29:00;33.13;;;12.52;;
21014;SDS011;19207;-23.482;-46.500;2023-08-17T06:31:47;24.90;;;11.85;;
21014;SDS011;19207;-23.482;-46.500;2023-08-17T06:34:34;26.45;;;12.13;;
21014;SDS011;19207;-23.482;-46.500;2023-08-17T06:37:20;26.65;;;11.65;;
21014;SDS011;19207;-23.482;-46.500;2023-08-17T06:40:07;28.58;;;12.25;;
21014;SDS011;19207;-23.482;-46.500;2023-08-17T06:42:57;26.83;;;11.35;;
21014;SDS011;19207;-23.482;-46.500;2023-08-17T06:45:43;18.85;;;10.40;;
21014;SDS011;19207;-23.482;-46.500;2023-08-17T06:48:31;25.62;;;10.60;;
21014;SDS011;19207;-23.482;-46.500;2023-08-17T06:51:18;18.70;;;10.73;;
21014;SDS011;19207;-23.482;-46.500;2023-08-17T06:54:07;25.90;;;11.77;;
21014;SDS011;19207;-23.482;-46.500;2023-08-17T06:56:55;23.33;;;11.43;;
21014;SDS011;19207;-23.482;-46.500;2023-08-17T06:59:42;22.00;;;11.50;;
21014;SDS011;19207;-23.482;-46.500;2023-08-17T07:02:31;22.02;;;11.95;;
21014;SDS011;19207;-23.482;-46.500;2023-08-17T07:05:18;36.97;;;16.37;;
21014;SDS011;19207;-23.482;-46.500;2023-08-17T07:08:05;37.45;;;17.98;;
21014;SDS011;19207;-23.482;-46.500;2023-08-17T07:10:52;42.08;;;16.95;;
21014;SDS011;19207;-23.482;-46.500;2023-08-17T07:13:39;42.17;;;16.95;;
21014;SDS011;19207;-23.482;-46.500;2023-08-17T07:16:26;44.70;;;18.08;;
21014;SDS011;19207;-23.482;-46.500;2023-08-17T07:19:13;37.95;;;15.27;;
21014;SDS011;19207;-23.482;-46.500;2023-08-17T07:22:01;28.77;;;13.48;;
21014;SDS011;19207;-23.482;-46.500;2023-08-17T07:24:48;36.78;;;12.70;;
21014;SDS011;19207;-23.482;-46.500;2023-08-17T07:27:35;29.33;;;11.95;;
21014;SDS011;19207;-23.482;-46.500;2023-08-17T07:30:22;23.62;;;11.85;;
21014;SDS011;19207;-23.482;-46.500;2023-08-17T07:33:09;30.42;;;11.77;;
21014;SDS011;19207;-23.482;-46.500;2023-08-17T07:35:56;28.48;;;12.98;;
21014;SDS011;19207;-23.482;-46.500;2023-08-17T07:38:43;22.55;;;11.77;;
21014;SDS011;19207;-23.482;-46.500;2023-08-17T07:41:30;21.73;;;12.65;;
21014;SDS011;19207;-23.482;-46.500;2023-08-17T07:44:18;26.25;;;12.95;;
21014;SDS011;19207;-23.482;-46.500;2023-08-17T07:47:05;27.95;;;12.65;;
21014;SDS011;19207;-23.482;-46.500;2023-08-17T07:49:52;23.27;;;11.57;;
21014;SDS011;19207;-23.482;-46.500;2023-08-17T07:52:39;24.08;;;11.80;;
21014;SDS011;19207;-23.482;-46.500;2023-08-17T07:55:26;22.62;;;10.93;;
21014;SDS011;19207;-23.482;-46.500;2023-08-17T07:58:13;26.12;;;11.30;;
21014;SDS011;19207;-23.482;-46.500;2023-08-17T08:01:01;26.42;;;11.55;;
21014;SDS011;19207;-23.482;-46.500;2023-08-17T08:03:48;24.73;;;11.63;;
21014;SDS011;19207;-23.482;-46.500;2023-08-17T08:06:35;25.20;;;12.63;;
21014;SDS011;19207;-23.482;-46.500;2023-08-17T08:09:22;26.92;;;11.32;;
21014;SDS011;19207;-23.482;-46.500;2023-08-17T08:12:09;25.65;;;11.77;;
21014;SDS011;19207;-23.482;-46.500;2023-08-17T08:14:56;27.58;;;12.68;;
21014;SDS011;19207;-23.482;-46.500;2023-08-17T08:17:43;32.17;;;12.25;;
21014;SDS011;19207;-23.482;-46.500;2023-08-17T08:20:31;30.37;;;12.35;;
21014;SDS011;19207;-23.482;-46.500;2023-08-17T08:23:18;27.87;;;13.57;;
21014;SDS011;19207;-23.482;-46.500;2023-08-17T08:26:05;36.20;;;14.48;;
21014;SDS011;19207;-23.482;-46.500;2023-08-17T08:28:52;32.72;;;15.20;;
21014;SDS011;19207;-23.482;-46.500;2023-08-17T08:31:39;33.25;;;15.13;;
21014;SDS011;19207;-23.482;-46.500;2023-08-17T08:34:45;34.33;;;15.40;;
21014;SDS011;19207;-23.482;-46.500;2023-08-17T08:37:32;29.20;;;17.30;;
21014;SDS011;19207;-23.482;-46.500;2023-08-17T08:40:18;33.58;;;18.20;;
21014;SDS011;19207;-23.482;-46.500;2023-08-17T08:43:06;31.55;;;18.55;;
21014;SDS011;19207;-23.482;-46.500;2023-08-17T08:45:54;33.08;;;18.98;;
21014;SDS011;19207;-23.482;-46.500;2023-08-17T08:48:41;36.95;;;19.12;;
21014;SDS011;19207;-23.482;-46.500;2023-08-17T08:51:27;36.58;;;20.55;;
21014;SDS011;19207;-23.482;-46.500;2023-08-17T08:54:18;49.97;;;20.58;;
21014;SDS011;19207;-23.482;-46.500;2023-08-17T08:57:08;51.17;;;24.33;;
21014;SDS011;19207;-23.482;-46.500;2023-08-17T08:59:56;45.55;;;23.45;;
21014;SDS011;19207;-23.482;-46.500;2023-08-17T09:02:44;60.63;;;28.25;;
21014;SDS011;19207;-23.482;-46.500;2023-08-17T09:05:31;64.32;;;30.35;;
21014;SDS011;19207;-23.482;-46.500;2023-08-17T09:08:27;58.42;;;32.55;;
21014;SDS011;19207;-23.482;-46.500;2023-08-17T09:11:15;52.58;;;31.00;;
21014;SDS011;19207;-23.482;-46.500;2023-08-17T09:14:03;55.25;;;30.08;;
21014;SDS011;19207;-23.482;-46.500;2023-08-17T09:16:52;42.45;;;26.02;;
21014;SDS011;19207;-23.482;-46.500;2023-08-17T09:19:39;38.42;;;22.55;;
21014;SDS011;19207;-23.482;-46.500;2023-08-17T09:22:36;37.80;;;21.20;;
21014;SDS011;19207;-23.482;-46.500;2023-08-17T09:25:24;37.20;;;19.80;;
21014;SDS011;19207;-23.482;-46.500;2023-08-17T09:28:12;42.00;;;19.30;;
21014;SDS011;19207;-23.482;-46.500;2023-08-17T09:31:00;40.40;;;20.58;;
21014;SDS011;19207;-23.482;-46.500;2023-08-17T09:33:52;54.28;;;21.10;;
21014;SDS011;19207;-23.482;-46.500;2023-08-17T09:36:39;43.00;;;21.45;;
21014;SDS011;19207;-23.482;-46.500;2023-08-17T09:39:26;47.25;;;21.42;;
21014;SDS011;19207;-23.482;-46.500;2023-08-17T09:42:14;44.75;;;21.15;;
21014;SDS011;19207;-23.482;-46.500;2023-08-17T09:45:03;45.00;;;22.17;;
21014;SDS011;19207;-23.482;-46.500;2023-08-17T09:47:50;43.55;;;21.55;;
21014;SDS011;19207;-23.482;-46.500;2023-08-17T09:50:37;62.47;;;23.73;;
21014;SDS011;19207;-23.482;-46.500;2023-08-17T09:53:24;52.92;;;23.62;;
21014;SDS011;19207;-23.482;-46.500;2023-08-17T09:56:12;46.63;;;22.90;;
21014;SDS011;19207;-23.482;-46.500;2023-08-17T09:58:59;56.37;;;22.80;;
21014;SDS011;19207;-23.482;-46.500;2023-08-17T10:01:48;39.80;;;20.45;;
21014;SDS011;19207;-23.482;-46.500;2023-08-17T10:04:35;41.15;;;21.15;;
21014;SDS011;19207;-23.482;-46.500;2023-08-17T10:07:26;40.00;;;19.62;;
21014;SDS011;19207;-23.482;-46.500;2023-08-17T10:10:16;52.80;;;21.65;;
21014;SDS011;19207;-23.482;-46.500;2023-08-17T10:16:33;42.42;;;21.23;;
21014;SDS011;19207;-23.482;-46.500;2023-08-17T10:19:26;68.78;;;21.08;;
21014;SDS011;19207;-23.482;-46.500;2023-08-17T10:22:19;47.90;;;21.55;;
21014;SDS011;19207;-23.482;-46.500;2023-08-17T10:25:08;50.50;;;21.80;;
21014;SDS011;19207;-23.482;-46.500;2023-08-17T10:27:57;42.90;;;21.15;;
21014;SDS011;19207;-23.482;-46.500;2023-08-17T10:30:45;40.58;;;18.70;;
21014;SDS011;19207;-23.482;-46.500;2023-08-17T10:33:33;38.78;;;19.23;;
21014;SDS011;19207;-23.482;-46.500;2023-08-17T10:36:20;43.67;;;18.75;;
21014;SDS011;19207;-23.482;-46.500;2023-08-17T10:39:20;41.80;;;18.17;;
21014;SDS011;19207;-23.482;-46.500;2023-08-17T10:42:07;46.10;;;19.45;;
21014;SDS011;19207;-23.482;-46.500;2023-08-17T10:44:55;38.85;;;17.55;;
21014;SDS011;19207;-23.482;-46.500;2023-08-17T10:47:41;32.92;;;16.00;;
21014;SDS011;19207;-23.482;-46.500;2023-08-17T10:50:28;52.40;;;19.92;;
21014;SDS011;19207;-23.482;-46.500;2023-08-17T10:53:15;47.25;;;17.98;;
21014;SDS011;19207;-23.482;-46.500;2023-08-17T10:56:04;36.15;;;15.45;;
21014;SDS011;19207;-23.482;-46.500;2023-08-17T10:58:53;63.42;;;22.48;;
21014;SDS011;19207;-23.482;-46.500;2023-08-17T11:01:40;35.55;;;15.77;;
21014;SDS011;19207;-23.482;-46.500;2023-08-17T11:04:32;32.72;;;15.07;;
21014;SDS011;19207;-23.482;-46.500;2023-08-17T11:07:19;66.97;;;22.52;;
21014;SDS011;19207;-23.482;-46.500;2023-08-17T11:13:05;72.78;;;23.95;;
21014;SDS011;19207;-23.482;-46.500;2023-08-17T11:15:52;95.95;;;30.00;;
21014;SDS011;19207;-23.482;-46.500;2023-08-17T11:18:39;122.43;;;32.50;;
21014;SDS011;19207;-23.482;-46.500;2023-08-17T11:21:32;98.47;;;32.58;;
21014;SDS011;19207;-23.482;-46.500;2023-08-17T11:24:19;85.07;;;28.48;;
21014;SDS011;19207;-23.482;-46.500;2023-08-17T11:27:06;77.57;;;28.45;;
21014;SDS011;19207;-23.482;-46.500;2023-08-17T11:29:53;95.10;;;27.70;;
21014;SDS011;19207;-23.482;-46.500;2023-08-17T11:32:40;60.90;;;22.73;;
21014;SDS011;19207;-23.482;-46.500;2023-08-17T11:35:27;48.03;;;19.85;;
21014;SDS011;19207;-23.482;-46.500;2023-08-17T11:38:14;62.53;;;23.85;;
21014;SDS011;19207;-23.482;-46.500;2023-08-17T11:41:01;74.68;;;24.70;;
21014;SDS011;19207;-23.482;-46.500;2023-08-17T11:43:49;38.28;;;16.27;;
21014;SDS011;19207;-23.482;-46.500;2023-08-17T11:46:36;43.35;;;14.35;;
21014;SDS011;19207;-23.482;-46.500;2023-08-17T11:49:23;45.30;;;18.48;;
21014;SDS011;19207;-23.482;-46.500;2023-08-17T11:52:10;43.80;;;16.92;;
21014;SDS011;19207;-23.482;-46.500;2023-08-17T11:54:57;40.15;;;19.27;;
21014;SDS011;19207;-23.482;-46.500;2023-08-17T11:57:44;45.03;;;18.02;;
21014;SDS011;19207;-23.482;-46.500;2023-08-17T12:00:34;53.95;;;20.58;;
21014;SDS011;19207;-23.482;-46.500;2023-08-17T12:03:24;37.30;;;17.10;;
21014;SDS011;19207;-23.482;-46.500;2023-08-17T12:06:12;44.15;;;17.95;;
21014;SDS011;19207;-23.482;-46.500;2023-08-17T12:08:59;38.40;;;17.42;;
21014;SDS011;19207;-23.482;-46.500;2023-08-17T12:11:46;50.38;;;19.37;;
21014;SDS011;19207;-23.482;-46.500;2023-08-17T12:14:34;44.42;;;16.87;;
21014;SDS011;19207;-23.482;-46.500;2023-08-17T12:17:21;46.15;;;17.23;;
21014;SDS011;19207;-23.482;-46.500;2023-08-17T12:20:08;40.38;;;17.08;;
21014;SDS011;19207;-23.482;-46.500;2023-08-17T12:23:01;42.53;;;18.75;;
21014;SDS011;19207;-23.482;-46.500;2023-08-17T12:25:53;57.38;;;18.35;;
21014;SDS011;19207;-23.482;-46.500;2023-08-17T12:28:40;34.25;;;16.75;;
21014;SDS011;19207;-23.482;-46.500;2023-08-17T12:31:28;41.37;;;17.00;;
21014;SDS011;19207;-23.482;-46.500;2023-08-17T12:34:16;32.00;;;14.18;;
21014;SDS011;19207;-23.482;-46.500;2023-08-17T12:37:03;21.45;;;10.90;;
21014;SDS011;19207;-23.482;-46.500;2023-08-17T12:39:50;27.25;;;10.73;;
21014;SDS011;19207;-23.482;-46.500;2023-08-17T12:42:37;19.75;;;9.00;;
21014;SDS011;19207;-23.482;-46.500;2023-08-17T12:45:23;17.52;;;8.02;;
21014;SDS011;19207;-23.482;-46.500;2023-08-17T12:48:10;11.82;;;7.95;;
21014;SDS011;19207;-23.482;-46.500;2023-08-17T12:50:57;15.75;;;6.65;;
21014;SDS011;19207;-23.482;-46.500;2023-08-17T12:53:44;12.55;;;6.40;;
21014;SDS011;19207;-23.482;-46.500;2023-08-17T12:56:30;15.63;;;6.43;;
21014;SDS011;19207;-23.482;-46.500;2023-08-17T12:59:17;9.15;;;6.53;;
21014;SDS011;19207;-23.482;-46.500;2023-08-17T13:02:05;12.10;;;7.05;;
21014;SDS011;19207;-23.482;-46.500;2023-08-17T13:04:51;11.10;;;7.35;;
21014;SDS011;19207;-23.482;-46.500;2023-08-17T13:07:39;14.82;;;7.12;;
21014;SDS011;19207;-23.482;-46.500;2023-08-17T13:10:26;13.73;;;7.55;;
21014;SDS011;19207;-23.482;-46.500;2023-08-17T13:13:12;15.48;;;6.93;;
21014;SDS011;19207;-23.482;-46.500;2023-08-17T13:15:59;18.45;;;7.57;;
21014;SDS011;19207;-23.482;-46.500;2023-08-17T13:18:46;16.02;;;7.60;;
21014;SDS011;19207;-23.482;-46.500;2023-08-17T13:21:33;14.25;;;6.80;;
21014;SDS011;19207;-23.482;-46.500;2023-08-17T13:24:19;17.17;;;7.03;;
21014;SDS011;19207;-23.482;-46.500;2023-08-17T13:27:06;12.20;;;6.85;;
21014;SDS011;19207;-23.482;-46.500;2023-08-17T13:29:53;19.23;;;7.57;;
21014;SDS011;19207;-23.482;-46.500;2023-08-17T13:32:40;13.45;;;7.40;;
21014;SDS011;19207;-23.482;-46.500;2023-08-17T13:35:28;17.10;;;7.07;;
21014;SDS011;19207;-23.482;-46.500;2023-08-17T13:38:15;19.77;;;7.62;;
21014;SDS011;19207;-23.482;-46.500;2023-08-17T13:41:02;14.10;;;8.52;;
21014;SDS011;19207;-23.482;-46.500;2023-08-17T13:43:49;10.85;;;7.62;;
21014;SDS011;19207;-23.482;-46.500;2023-08-17T13:46:35;15.90;;;8.55;;
21014;SDS011;19207;-23.482;-46.500;2023-08-17T13:49:22;15.60;;;7.97;;
21014;SDS011;19207;-23.482;-46.500;2023-08-17T13:52:09;12.37;;;7.12;;
21014;SDS011;19207;-23.482;-46.500;2023-08-17T13:54:55;12.05;;;6.30;;
21014;SDS011;19207;-23.482;-46.500;2023-08-17T13:57:42;13.65;;;6.82;;
21014;SDS011;19207;-23.482;-46.500;2023-08-17T14:00:29;11.90;;;6.62;;
21014;SDS011;19207;-23.482;-46.500;2023-08-17T14:03:16;13.45;;;6.80;;
21014;SDS011;19207;-23.482;-46.500;2023-08-17T14:06:03;15.98;;;6.85;;
21014;SDS011;19207;-23.482;-46.500;2023-08-17T14:08:51;8.13;;;6.00;;
21014;SDS011;19207;-23.482;-46.500;2023-08-17T14:11:38;8.55;;;5.78;;
21014;SDS011;19207;-23.482;-46.500;2023-08-17T14:14:25;11.60;;;5.80;;
21014;SDS011;19207;-23.482;-46.500;2023-08-17T14:17:11;10.55;;;6.82;;
21014;SDS011;19207;-23.482;-46.500;2023-08-17T14:19:59;10.13;;;6.25;;
21014;SDS011;19207;-23.482;-46.500;2023-08-17T14:22:46;10.13;;;5.97;;
21014;SDS011;19207;-23.482;-46.500;2023-08-17T14:25:32;9.68;;;6.72;;
21014;SDS011;19207;-23.482;-46.500;2023-08-17T14:28:19;10.45;;;5.93;;
21014;SDS011;19207;-23.482;-46.500;2023-08-17T14:31:06;10.90;;;6.30;;
21014;SDS011;19207;-23.482;-46.500;2023-08-17T14:33:53;8.90;;;5.70;;
21014;SDS011;19207;-23.482;-46.500;2023-08-17T14:36:40;10.75;;;5.43;;
21014;SDS011;19207;-23.482;-46.500;2023-08-17T14:39:27;8.25;;;5.35;;
21014;SDS011;19207;-23.482;-46.500;2023-08-17T14:42:14;9.65;;;5.45;;
21014;SDS011;19207;-23.482;-46.500;2023-08-17T14:45:01;10.75;;;5.72;;
21014;SDS011;19207;-23.482;-46.500;2023-08-17T14:47:48;6.05;;;5.10;;
21014;SDS011;19207;-23.482;-46.500;2023-08-17T14:50:35;7.40;;;5.45;;
21014;SDS011;19207;-23.482;-46.500;2023-08-17T14:53:22;13.85;;;5.70;;
21014;SDS011;19207;-23.482;-46.500;2023-08-17T14:56:09;17.15;;;5.72;;
21014;SDS011;19207;-23.482;-46.500;2023-08-17T14:58:56;6.93;;;4.93;;
21014;SDS011;19207;-23.482;-46.500;2023-08-17T15:01:44;6.07;;;5.35;;
21014;SDS011;19207;-23.482;-46.500;2023-08-17T15:04:31;10.90;;;6.47;;
21014;SDS011;19207;-23.482;-46.500;2023-08-17T15:07:21;9.57;;;5.72;;
21014;SDS011;19207;-23.482;-46.500;2023-08-17T15:10:12;18.15;;;6.15;;
21014;SDS011;19207;-23.482;-46.500;2023-08-17T15:12:59;10.55;;;5.82;;
21014;SDS011;19207;-23.482;-46.500;2023-08-17T15:15:46;9.68;;;5.90;;
21014;SDS011;19207;-23.482;-46.500;2023-08-17T15:18:33;8.15;;;5.65;;
21014;SDS011;19207;-23.482;-46.500;2023-08-17T15:21:20;8.95;;;5.87;;
21014;SDS011;19207;-23.482;-46.500;2023-08-17T15:24:07;8.63;;;5.85;;
21014;SDS011;19207;-23.482;-46.500;2023-08-17T15:26:53;7.68;;;5.78;;
21014;SDS011;19207;-23.482;-46.500;2023-08-17T15:29:40;8.02;;;5.80;;
21014;SDS011;19207;-23.482;-46.500;2023-08-17T15:32:27;10.50;;;6.00;;
21014;SDS011;19207;-23.482;-46.500;2023-08-17T15:35:14;7.30;;;5.25;;
21014;SDS011;19207;-23.482;-46.500;2023-08-17T15:38:01;14.77;;;5.45;;
21014;SDS011;19207;-23.482;-46.500;2023-08-17T15:40:48;11.82;;;5.47;;
21014;SDS011;19207;-23.482;-46.500;2023-08-17T15:43:36;9.60;;;5.60;;
21014;SDS011;19207;-23.482;-46.500;2023-08-17T15:46:23;9.50;;;5.32;;
21014;SDS011;19207;-23.482;-46.500;2023-08-17T15:49:09;13.93;;;6.65;;
21014;SDS011;19207;-23.482;-46.500;2023-08-17T15:51:59;11.32;;;5.70;;
21014;SDS011;19207;-23.482;-46.500;2023-08-17T15:54:46;7.03;;;5.22;;
21014;SDS011;19207;-23.482;-46.500;2023-08-17T15:57:33;11.30;;;5.40;;
21014;SDS011;19207;-23.482;-46.500;2023-08-17T16:00:21;10.35;;;5.80;;
21014;SDS011;19207;-23.482;-46.500;2023-08-17T16:03:09;6.40;;;5.43;;
21014;SDS011;19207;-23.482;-46.500;2023-08-17T16:05:56;10.73;;;5.85;;